sensor_id;sensor_type;location;lat;lon;timestamp;P1;durP1;ratioP1;P2;durP2;ratioP2
18146;SDS011;9199;48.832;9.182;2023-04-24T00:01:23;2.47;;;1.20;;
18146;SDS011;9199;48.832;9.182;2023-04-24T00:03:50;3.28;;;0.80;;
18146;SDS011;9199;48.832;9.182;2023-04-24T00:06:17;3.10;;;0.70;;
18146;SDS011;9199;48.832;9.182;2023-04-24T00:08:43;2.47;;;0.93;;
18146;SDS011;9199;48.832;9.182;2023-04-24T00:11:11;2.50;;;0.60;;
18146;SDS011;9199;48.832;9.182;2023-04-24T00:13:38;3.72;;;0.75;;
18146;SDS011;9199;48.832;9.182;2023-04-24T00:16:05;2.70;;;0.70;;
18146;SDS011;9199;48.832;9.182;2023-04-24T00:18:32;2.90;;;0.80;;
18146;SDS011;9199;48.832;9.182;2023-04-24T00:20:58;1.50;;;0.60;;
18146;SDS011;9199;48.832;9.182;2023-04-24T00:23:25;3.30;;;0.77;;
18146;SDS011;9199;48.832;9.182;2023-04-24T00:25:52;1.85;;;0.63;;
18146;SDS011;9199;48.832;9.182;2023-04-24T00:28:20;3.05;;;0.80;;
18146;SDS011;9199;48.832;9.182;2023-04-24T00:30:47;2.03;;;0.70;;
18146;SDS011;9199;48.832;9.182;2023-04-24T00:33:14;1.75;;;0.70;;
18146;SDS011;9199;48.832;9.182;2023-04-24T00:35:40;2.15;;;0.75;;
18146;SDS011;9199;48.832;9.182;2023-04-24T00:38:07;2.45;;;0.65;;
18146;SDS011;9199;48.832;9.182;2023-04-24T00:40:34;4.45;;;0.70;;
18146;SDS011;9199;48.832;9.182;2023-04-24T00:43:00;3.10;;;0.80;;
18146;SDS011;9199;48.832;9.182;2023-04-24T00:45:29;2.05;;;0.70;;
18146;SDS011;9199;48.832;9.182;2023-04-24T00:47:57;2.88;;;0.80;;
18146;SDS011;9199;48.832;9.182;2023-04-24T00:50:23;3.38;;;0.75;;
18146;SDS011;9199;48.832;9.182;2023-04-24T00:52:51;2.92;;;0.80;;
18146;SDS011;9199;48.832;9.182;2023-04-24T00:55:18;1.97;;;0.60;;
18146;SDS011;9199;48.832;9.182;2023-04-24T00:57:45;3.15;;;0.75;;
18146;SDS011;9199;48.832;9.182;2023-04-24T01:00:12;1.58;;;0.80;;
18146;SDS011;9199;48.832;9.182;2023-04-24T01:02:42;1.92;;;0.60;;
18146;SDS011;9199;48.832;9.182;2023-04-24T01:05:10;2.90;;;0.80;;
18146;SDS011;9199;48.832;9.182;2023-04-24T01:07:38;1.93;;;0.70;;
18146;SDS011;9199;48.832;9.182;2023-04-24T01:10:05;3.60;;;0.70;;
18146;SDS011;9199;48.832;9.182;2023-04-24T01:12:34;1.40;;;0.60;;
18146;SDS011;9199;48.832;9.182;2023-04-24T01:15:00;3.13;;;0.68;;
18146;SDS011;9199;48.832;9.182;2023-04-24T01:17:28;2.08;;;0.70;;
18146;SDS011;9199;48.832;9.182;2023-04-24T01:19:57;1.83;;;0.70;;
18146;SDS011;9199;48.832;9.182;2023-04-24T01:22:26;2.20;;;0.60;;
18146;SDS011;9199;48.832;9.182;2023-04-24T01:24:53;3.40;;;0.80;;
18146;SDS011;9199;48.832;9.182;2023-04-24T01:27:19;1.92;;;0.50;;
18146;SDS011;9199;48.832;9.182;2023-04-24T01:29:46;1.98;;;0.60;;
18146;SDS011;9199;48.832;9.182;2023-04-24T01:32:14;3.97;;;0.70;;
18146;SDS011;9199;48.832;9.182;2023-04-24T01:34:41;1.88;;;0.50;;
18146;SDS011;9199;48.832;9.182;2023-04-24T01:37:08;1.55;;;0.60;;
18146;SDS011;9199;48.832;9.182;2023-04-24T01:39:37;2.47;;;0.52;;
18146;SDS011;9199;48.832;9.182;2023-04-24T01:42:04;2.58;;;0.73;;
18146;SDS011;9199;48.832;9.182;2023-04-24T01:44:31;2.03;;;0.60;;
18146;SDS011;9199;48.832;9.182;2023-04-24T01:46:59;3.25;;;0.68;;
18146;SDS011;9199;48.832;9.182;2023-04-24T01:49:26;2.88;;;0.80;;
18146;SDS011;9199;48.832;9.182;2023-04-24T01:51:53;3.15;;;0.70;;
18146;SDS011;9199;48.832;9.182;2023-04-24T01:54:20;2.67;;;0.90;;
18146;SDS011;9199;48.832;9.182;2023-04-24T01:56:48;2.80;;;0.50;;
18146;SDS011;9199;48.832;9.182;2023-04-24T01:59:15;1.83;;;0.75;;
18146;SDS011;9199;48.832;9.182;2023-04-24T02:01:43;2.53;;;0.75;;
18146;SDS011;9199;48.832;9.182;2023-04-24T02:04:09;1.80;;;0.70;;
18146;SDS011;9199;48.832;9.182;2023-04-24T02:06:36;2.53;;;0.60;;
18146;SDS011;9199;48.832;9.182;2023-04-24T02:09:03;2.13;;;0.70;;
18146;SDS011;9199;48.832;9.182;2023-04-24T02:11:29;3.08;;;0.70;;
18146;SDS011;9199;48.832;9.182;2023-04-24T02:13:57;4.50;;;0.80;;
18146;SDS011;9199;48.832;9.182;2023-04-24T02:16:24;3.80;;;0.60;;
18146;SDS011;9199;48.832;9.182;2023-04-24T02:18:51;3.00;;;0.60;;
18146;SDS011;9199;48.832;9.182;2023-04-24T02:21:17;2.17;;;0.80;;
18146;SDS011;9199;48.832;9.182;2023-04-24T02:23:44;1.60;;;0.60;;
18146;SDS011;9199;48.832;9.182;2023-04-24T02:26:11;4.22;;;1.10;;
18146;SDS011;9199;48.832;9.182;2023-04-24T02:28:37;3.88;;;0.80;;
18146;SDS011;9199;48.832;9.182;2023-04-24T02:31:05;2.65;;;0.70;;
18146;SDS011;9199;48.832;9.182;2023-04-24T02:33:32;1.50;;;0.60;;
18146;SDS011;9199;48.832;9.182;2023-04-24T02:35:59;2.28;;;0.90;;
18146;SDS011;9199;48.832;9.182;2023-04-24T02:38:25;2.58;;;0.70;;
18146;SDS011;9199;48.832;9.182;2023-04-24T02:40:52;3.92;;;0.70;;
18146;SDS011;9199;48.832;9.182;2023-04-24T02:43:19;2.50;;;0.70;;
18146;SDS011;9199;48.832;9.182;2023-04-24T02:45:46;3.47;;;0.90;;
18146;SDS011;9199;48.832;9.182;2023-04-24T02:48:14;2.15;;;0.70;;
18146;SDS011;9199;48.832;9.182;2023-04-24T02:50:42;2.80;;;0.80;;
18146;SDS011;9199;48.832;9.182;2023-04-24T02:53:11;3.88;;;0.80;;
18146;SDS011;9199;48.832;9.182;2023-04-24T02:55:38;2.90;;;0.80;;
18146;SDS011;9199;48.832;9.182;2023-04-24T02:58:05;2.20;;;0.63;;
18146;SDS011;9199;48.832;9.182;2023-04-24T03:00:31;2.25;;;0.80;;
18146;SDS011;9199;48.832;9.182;2023-04-24T03:02:59;2.70;;;0.82;;
18146;SDS011;9199;48.832;9.182;2023-04-24T03:05:27;3.67;;;1.17;;
18146;SDS011;9199;48.832;9.182;2023-04-24T03:07:53;2.85;;;0.70;;
18146;SDS011;9199;48.832;9.182;2023-04-24T03:10:20;3.27;;;0.70;;
18146;SDS011;9199;48.832;9.182;2023-04-24T03:12:48;2.72;;;0.80;;
18146;SDS011;9199;48.832;9.182;2023-04-24T03:15:15;2.90;;;0.90;;
18146;SDS011;9199;48.832;9.182;2023-04-24T03:17:41;2.45;;;0.80;;
18146;SDS011;9199;48.832;9.182;2023-04-24T03:20:09;3.70;;;0.80;;
18146;SDS011;9199;48.832;9.182;2023-04-24T03:22:37;2.73;;;0.90;;
18146;SDS011;9199;48.832;9.182;2023-04-24T03:25:04;3.67;;;1.08;;
18146;SDS011;9199;48.832;9.182;2023-04-24T03:27:33;3.70;;;0.90;;
18146;SDS011;9199;48.832;9.182;2023-04-24T03:29:59;2.70;;;0.90;;
18146;SDS011;9199;48.832;9.182;2023-04-24T03:32:27;2.22;;;0.90;;
18146;SDS011;9199;48.832;9.182;2023-04-24T03:34:53;3.53;;;1.00;;
18146;SDS011;9199;48.832;9.182;2023-04-24T03:37:20;2.08;;;0.95;;
18146;SDS011;9199;48.832;9.182;2023-04-24T03:39:48;2.00;;;0.80;;
18146;SDS011;9199;48.832;9.182;2023-04-24T03:42:15;4.22;;;0.90;;
18146;SDS011;9199;48.832;9.182;2023-04-24T03:44:41;3.15;;;0.80;;
18146;SDS011;9199;48.832;9.182;2023-04-24T03:47:08;2.70;;;0.90;;
18146;SDS011;9199;48.832;9.182;2023-04-24T03:49:35;4.38;;;0.80;;
18146;SDS011;9199;48.832;9.182;2023-04-24T03:52:01;3.22;;;0.80;;
18146;SDS011;9199;48.832;9.182;2023-04-24T03:54:28;2.33;;;0.70;;
18146;SDS011;9199;48.832;9.182;2023-04-24T03:56:56;2.40;;;0.90;;
18146;SDS011;9199;48.832;9.182;2023-04-24T03:59:23;3.37;;;0.90;;
18146;SDS011;9199;48.832;9.182;2023-04-24T04:01:49;3.53;;;0.82;;
18146;SDS011;9199;48.832;9.182;2023-04-24T04:04:16;3.85;;;0.82;;
18146;SDS011;9199;48.832;9.182;2023-04-24T04:06:43;3.30;;;0.85;;
18146;SDS011;9199;48.832;9.182;2023-04-24T04:09:11;3.10;;;0.90;;
18146;SDS011;9199;48.832;9.182;2023-04-24T04:11:38;2.40;;;0.83;;
18146;SDS011;9199;48.832;9.182;2023-04-24T04:14:06;3.63;;;0.90;;
18146;SDS011;9199;48.832;9.182;2023-04-24T04:16:33;4.50;;;0.95;;
18146;SDS011;9199;48.832;9.182;2023-04-24T04:19:01;4.25;;;0.82;;
18146;SDS011;9199;48.832;9.182;2023-04-24T04:21:28;3.45;;;0.90;;
18146;SDS011;9199;48.832;9.182;2023-04-24T04:23:56;4.67;;;1.13;;
18146;SDS011;9199;48.832;9.182;2023-04-24T04:26:22;1.90;;;0.70;;
18146;SDS011;9199;48.832;9.182;2023-04-24T04:28:50;2.60;;;0.90;;
18146;SDS011;9199;48.832;9.182;2023-04-24T04:31:18;4.28;;;0.90;;
18146;SDS011;9199;48.832;9.182;2023-04-24T04:33:45;3.33;;;1.10;;
18146;SDS011;9199;48.832;9.182;2023-04-24T04:36:12;3.77;;;1.50;;
18146;SDS011;9199;48.832;9.182;2023-04-24T04:38:39;2.90;;;1.05;;
18146;SDS011;9199;48.832;9.182;2023-04-24T04:41:08;1.95;;;0.98;;
18146;SDS011;9199;48.832;9.182;2023-04-24T04:43:34;2.70;;;0.98;;
18146;SDS011;9199;48.832;9.182;2023-04-24T04:46:01;2.50;;;1.10;;
18146;SDS011;9199;48.832;9.182;2023-04-24T04:48:29;2.73;;;1.10;;
18146;SDS011;9199;48.832;9.182;2023-04-24T04:50:56;2.25;;;0.90;;
18146;SDS011;9199;48.832;9.182;2023-04-24T04:53:23;3.20;;;1.00;;
18146;SDS011;9199;48.832;9.182;2023-04-24T04:55:51;2.95;;;1.20;;
18146;SDS011;9199;48.832;9.182;2023-04-24T04:58:18;2.70;;;1.10;;
18146;SDS011;9199;48.832;9.182;2023-04-24T05:00:44;1.83;;;0.90;;
18146;SDS011;9199;48.832;9.182;2023-04-24T05:03:11;3.08;;;1.20;;
18146;SDS011;9199;48.832;9.182;2023-04-24T05:05:39;3.25;;;1.13;;
18146;SDS011;9199;48.832;9.182;2023-04-24T05:08:06;2.80;;;1.05;;
18146;SDS011;9199;48.832;9.182;2023-04-24T05:10:33;6.07;;;0.90;;
18146;SDS011;9199;48.832;9.182;2023-04-24T05:13:01;2.27;;;0.90;;
18146;SDS011;9199;48.832;9.182;2023-04-24T05:15:28;2.47;;;0.88;;
18146;SDS011;9199;48.832;9.182;2023-04-24T05:17:55;2.45;;;0.80;;
18146;SDS011;9199;48.832;9.182;2023-04-24T05:20:22;2.47;;;1.08;;
18146;SDS011;9199;48.832;9.182;2023-04-24T05:22:50;2.38;;;1.00;;
18146;SDS011;9199;48.832;9.182;2023-04-24T05:25:16;2.70;;;1.00;;
18146;SDS011;9199;48.832;9.182;2023-04-24T05:27:43;2.22;;;1.05;;
18146;SDS011;9199;48.832;9.182;2023-04-24T05:30:11;2.80;;;0.90;;
18146;SDS011;9199;48.832;9.182;2023-04-24T05:32:38;2.05;;;0.88;;
18146;SDS011;9199;48.832;9.182;2023-04-24T05:35:05;2.47;;;0.88;;
18146;SDS011;9199;48.832;9.182;2023-04-24T05:37:32;2.17;;;1.10;;
18146;SDS011;9199;48.832;9.182;2023-04-24T05:40:00;3.22;;;1.00;;
18146;SDS011;9199;48.832;9.182;2023-04-24T05:42:29;4.05;;;0.88;;
18146;SDS011;9199;48.832;9.182;2023-04-24T05:44:56;2.33;;;0.80;;
18146;SDS011;9199;48.832;9.182;2023-04-24T05:47:22;4.00;;;1.23;;
18146;SDS011;9199;48.832;9.182;2023-04-24T05:49:49;3.03;;;1.10;;
18146;SDS011;9199;48.832;9.182;2023-04-24T05:52:16;2.38;;;1.00;;
18146;SDS011;9199;48.832;9.182;2023-04-24T05:54:42;2.85;;;1.00;;
18146;SDS011;9199;48.832;9.182;2023-04-24T05:57:10;3.00;;;1.17;;
18146;SDS011;9199;48.832;9.182;2023-04-24T05:59:37;2.83;;;1.10;;
18146;SDS011;9199;48.832;9.182;2023-04-24T06:02:04;2.67;;;1.00;;
18146;SDS011;9199;48.832;9.182;2023-04-24T06:04:31;2.60;;;0.90;;
18146;SDS011;9199;48.832;9.182;2023-04-24T06:06:58;2.78;;;1.02;;
18146;SDS011;9199;48.832;9.182;2023-04-24T06:09:25;3.88;;;1.20;;
18146;SDS011;9199;48.832;9.182;2023-04-24T06:11:52;3.15;;;1.10;;
18146;SDS011;9199;48.832;9.182;2023-04-24T06:14:21;3.27;;;1.20;;
18146;SDS011;9199;48.832;9.182;2023-04-24T06:16:47;4.75;;;1.30;;
18146;SDS011;9199;48.832;9.182;2023-04-24T06:19:14;3.25;;;1.10;;
18146;SDS011;9199;48.832;9.182;2023-04-24T06:21:41;3.42;;;1.27;;
18146;SDS011;9199;48.832;9.182;2023-04-24T06:24:07;3.10;;;1.30;;
18146;SDS011;9199;48.832;9.182;2023-04-24T06:26:34;2.63;;;1.20;;
18146;SDS011;9199;48.832;9.182;2023-04-24T06:29:01;2.97;;;1.50;;
18146;SDS011;9199;48.832;9.182;2023-04-24T06:31:30;3.55;;;1.50;;
18146;SDS011;9199;48.832;9.182;2023-04-24T06:34:01;3.38;;;1.10;;
18146;SDS011;9199;48.832;9.182;2023-04-24T06:36:28;3.78;;;1.40;;
18146;SDS011;9199;48.832;9.182;2023-04-24T06:38:56;4.33;;;1.57;;
18146;SDS011;9199;48.832;9.182;2023-04-24T06:41:23;3.85;;;1.30;;
18146;SDS011;9199;48.832;9.182;2023-04-24T06:43:50;5.03;;;1.50;;
18146;SDS011;9199;48.832;9.182;2023-04-24T06:46:16;3.28;;;1.10;;
18146;SDS011;9199;48.832;9.182;2023-04-24T06:48:44;3.47;;;1.20;;
18146;SDS011;9199;48.832;9.182;2023-04-24T06:51:11;2.83;;;1.20;;
18146;SDS011;9199;48.832;9.182;2023-04-24T06:53:37;3.63;;;1.30;;
18146;SDS011;9199;48.832;9.182;2023-04-24T06:56:04;4.15;;;1.23;;
18146;SDS011;9199;48.832;9.182;2023-04-24T06:58:31;2.63;;;1.08;;
18146;SDS011;9199;48.832;9.182;2023-04-24T07:00:57;2.90;;;1.30;;
18146;SDS011;9199;48.832;9.182;2023-04-24T07:03:24;4.07;;;1.60;;
18146;SDS011;9199;48.832;9.182;2023-04-24T07:05:52;5.18;;;1.67;;
18146;SDS011;9199;48.832;9.182;2023-04-24T07:08:20;3.03;;;1.38;;
18146;SDS011;9199;48.832;9.182;2023-04-24T07:10:48;3.47;;;1.30;;
18146;SDS011;9199;48.832;9.182;2023-04-24T07:13:15;3.72;;;1.20;;
18146;SDS011;9199;48.832;9.182;2023-04-24T07:15:42;3.97;;;1.40;;
18146;SDS011;9199;48.832;9.182;2023-04-24T07:18:09;3.40;;;1.38;;
18146;SDS011;9199;48.832;9.182;2023-04-24T07:20:35;2.65;;;1.25;;
18146;SDS011;9199;48.832;9.182;2023-04-24T07:23:04;3.42;;;1.50;;
18146;SDS011;9199;48.832;9.182;2023-04-24T07:25:30;3.35;;;1.20;;
18146;SDS011;9199;48.832;9.182;2023-04-24T07:27:57;4.23;;;1.30;;
18146;SDS011;9199;48.832;9.182;2023-04-24T07:30:24;3.28;;;1.40;;
18146;SDS011;9199;48.832;9.182;2023-04-24T07:32:51;3.80;;;1.20;;
18146;SDS011;9199;48.832;9.182;2023-04-24T07:35:17;3.50;;;1.20;;
18146;SDS011;9199;48.832;9.182;2023-04-24T07:37:45;2.53;;;1.15;;
18146;SDS011;9199;48.832;9.182;2023-04-24T07:40:13;3.90;;;1.30;;
18146;SDS011;9199;48.832;9.182;2023-04-24T07:42:39;3.38;;;1.13;;
18146;SDS011;9199;48.832;9.182;2023-04-24T07:45:06;3.65;;;1.38;;
18146;SDS011;9199;48.832;9.182;2023-04-24T07:47:33;2.67;;;1.20;;
18146;SDS011;9199;48.832;9.182;2023-04-24T07:50:02;3.40;;;1.10;;
18146;SDS011;9199;48.832;9.182;2023-04-24T07:52:29;3.03;;;1.10;;
18146;SDS011;9199;48.832;9.182;2023-04-24T07:54:55;5.22;;;1.33;;
18146;SDS011;9199;48.832;9.182;2023-04-24T07:57:26;3.30;;;1.48;;
18146;SDS011;9199;48.832;9.182;2023-04-24T07:59:53;3.25;;;1.40;;
18146;SDS011;9199;48.832;9.182;2023-04-24T08:02:20;2.22;;;1.10;;
18146;SDS011;9199;48.832;9.182;2023-04-24T08:04:51;5.13;;;1.10;;
18146;SDS011;9199;48.832;9.182;2023-04-24T08:07:17;4.40;;;1.30;;
18146;SDS011;9199;48.832;9.182;2023-04-24T08:09:44;2.72;;;1.33;;
18146;SDS011;9199;48.832;9.182;2023-04-24T08:12:11;2.90;;;1.00;;
18146;SDS011;9199;48.832;9.182;2023-04-24T08:14:39;2.17;;;1.00;;
18146;SDS011;9199;48.832;9.182;2023-04-24T08:17:06;3.97;;;1.10;;
18146;SDS011;9199;48.832;9.182;2023-04-24T08:19:33;3.25;;;1.10;;
18146;SDS011;9199;48.832;9.182;2023-04-24T08:21:59;2.90;;;1.38;;
18146;SDS011;9199;48.832;9.182;2023-04-24T08:24:26;3.50;;;1.30;;
18146;SDS011;9199;48.832;9.182;2023-04-24T08:26:52;2.85;;;1.40;;
18146;SDS011;9199;48.832;9.182;2023-04-24T08:29:21;2.83;;;1.33;;
18146;SDS011;9199;48.832;9.182;2023-04-24T08:31:49;4.55;;;1.38;;
18146;SDS011;9199;48.832;9.182;2023-04-24T08:34:16;3.45;;;1.27;;
18146;SDS011;9199;48.832;9.182;2023-04-24T08:36:43;4.88;;;1.30;;
18146;SDS011;9199;48.832;9.182;2023-04-24T08:39:09;3.33;;;1.40;;
18146;SDS011;9199;48.832;9.182;2023-04-24T08:41:36;3.90;;;1.37;;
18146;SDS011;9199;48.832;9.182;2023-04-24T08:44:04;4.47;;;1.08;;
18146;SDS011;9199;48.832;9.182;2023-04-24T08:46:31;3.25;;;1.25;;
18146;SDS011;9199;48.832;9.182;2023-04-24T08:49:00;3.00;;;1.20;;
18146;SDS011;9199;48.832;9.182;2023-04-24T08:51:27;5.45;;;1.45;;
18146;SDS011;9199;48.832;9.182;2023-04-24T08:53:55;3.43;;;1.10;;
18146;SDS011;9199;48.832;9.182;2023-04-24T08:56:23;2.95;;;1.35;;
18146;SDS011;9199;48.832;9.182;2023-04-24T08:58:50;3.83;;;1.55;;
18146;SDS011;9199;48.832;9.182;2023-04-24T09:01:17;3.15;;;1.40;;
18146;SDS011;9199;48.832;9.182;2023-04-24T09:03:45;5.68;;;1.40;;
18146;SDS011;9199;48.832;9.182;2023-04-24T09:06:16;3.10;;;1.20;;
18146;SDS011;9199;48.832;9.182;2023-04-24T09:08:44;3.60;;;1.23;;
18146;SDS011;9199;48.832;9.182;2023-04-24T09:11:11;2.72;;;1.15;;
18146;SDS011;9199;48.832;9.182;2023-04-24T09:13:38;4.90;;;1.20;;
18146;SDS011;9199;48.832;9.182;2023-04-24T09:16:05;3.30;;;1.20;;
18146;SDS011;9199;48.832;9.182;2023-04-24T09:18:32;3.40;;;1.10;;
18146;SDS011;9199;48.832;9.182;2023-04-24T09:21:00;3.65;;;1.30;;
18146;SDS011;9199;48.832;9.182;2023-04-24T09:23:30;3.00;;;1.20;;
18146;SDS011;9199;48.832;9.182;2023-04-24T09:25:57;2.28;;;0.90;;
18146;SDS011;9199;48.832;9.182;2023-04-24T09:28:26;2.55;;;1.00;;
18146;SDS011;9199;48.832;9.182;2023-04-24T09:31:05;3.20;;;1.10;;
18146;SDS011;9199;48.832;9.182;2023-04-24T09:33:33;2.80;;;1.10;;
18146;SDS011;9199;48.832;9.182;2023-04-24T09:36:00;4.28;;;1.00;;
18146;SDS011;9199;48.832;9.182;2023-04-24T09:38:32;3.63;;;1.10;;
18146;SDS011;9199;48.832;9.182;2023-04-24T09:41:01;2.83;;;1.20;;
18146;SDS011;9199;48.832;9.182;2023-04-24T09:43:29;2.43;;;1.10;;
18146;SDS011;9199;48.832;9.182;2023-04-24T09:45:57;2.45;;;1.10;;
18146;SDS011;9199;48.832;9.182;2023-04-24T09:48:32;2.97;;;1.20;;
18146;SDS011;9199;48.832;9.182;2023-04-24T09:51:00;2.92;;;1.30;;
18146;SDS011;9199;48.832;9.182;2023-04-24T09:53:28;2.20;;;0.90;;
18146;SDS011;9199;48.832;9.182;2023-04-24T09:55:56;2.30;;;1.13;;
18146;SDS011;9199;48.832;9.182;2023-04-24T09:58:28;2.90;;;1.00;;
18146;SDS011;9199;48.832;9.182;2023-04-24T10:00:55;3.13;;;0.95;;
18146;SDS011;9199;48.832;9.182;2023-04-24T10:03:23;1.80;;;0.80;;
18146;SDS011;9199;48.832;9.182;2023-04-24T10:05:52;3.55;;;1.00;;
18146;SDS011;9199;48.832;9.182;2023-04-24T10:08:19;2.97;;;1.00;;
18146;SDS011;9199;48.832;9.182;2023-04-24T10:10:47;2.17;;;0.85;;
18146;SDS011;9199;48.832;9.182;2023-04-24T10:13:15;3.58;;;0.90;;
18146;SDS011;9199;48.832;9.182;2023-04-24T10:15:42;2.33;;;1.00;;
18146;SDS011;9199;48.832;9.182;2023-04-24T10:18:09;2.65;;;1.00;;
18146;SDS011;9199;48.832;9.182;2023-04-24T10:20:37;3.33;;;0.90;;
18146;SDS011;9199;48.832;9.182;2023-04-24T10:23:05;4.40;;;0.98;;
18146;SDS011;9199;48.832;9.182;2023-04-24T10:25:32;2.30;;;0.90;;
18146;SDS011;9199;48.832;9.182;2023-04-24T10:28:00;3.60;;;0.90;;
18146;SDS011;9199;48.832;9.182;2023-04-24T10:30:29;4.00;;;1.00;;
18146;SDS011;9199;48.832;9.182;2023-04-24T10:32:59;4.43;;;1.17;;
18146;SDS011;9199;48.832;9.182;2023-04-24T10:35:26;3.92;;;1.08;;
18146;SDS011;9199;48.832;9.182;2023-04-24T10:37:58;4.03;;;1.23;;
18146;SDS011;9199;48.832;9.182;2023-04-24T10:40:30;4.55;;;1.30;;
18146;SDS011;9199;48.832;9.182;2023-04-24T10:42:58;4.88;;;1.20;;
18146;SDS011;9199;48.832;9.182;2023-04-24T10:45:25;2.57;;;1.20;;
18146;SDS011;9199;48.832;9.182;2023-04-24T10:47:54;3.40;;;1.17;;
18146;SDS011;9199;48.832;9.182;2023-04-24T10:50:25;2.72;;;1.10;;
18146;SDS011;9199;48.832;9.182;2023-04-24T10:52:52;4.45;;;1.40;;
18146;SDS011;9199;48.832;9.182;2023-04-24T10:58:09;3.60;;;1.30;;
18146;SDS011;9199;48.832;9.182;2023-04-24T11:00:36;2.13;;;1.00;;
18146;SDS011;9199;48.832;9.182;2023-04-24T11:03:05;4.30;;;1.20;;
18146;SDS011;9199;48.832;9.182;2023-04-24T11:05:49;4.10;;;1.10;;
18146;SDS011;9199;48.832;9.182;2023-04-24T11:08:21;3.47;;;1.25;;
18146;SDS011;9199;48.832;9.182;2023-04-24T11:11:00;2.27;;;1.20;;
18146;SDS011;9199;48.832;9.182;2023-04-24T11:16:25;2.80;;;0.98;;
18146;SDS011;9199;48.832;9.182;2023-04-24T11:19:01;2.70;;;1.10;;
18146;SDS011;9199;48.832;9.182;2023-04-24T11:21:32;2.10;;;0.80;;
18146;SDS011;9199;48.832;9.182;2023-04-24T11:24:25;3.10;;;1.10;;
18146;SDS011;9199;48.832;9.182;2023-04-24T11:26:54;3.08;;;1.05;;
18146;SDS011;9199;48.832;9.182;2023-04-24T11:29:22;2.40;;;0.90;;
18146;SDS011;9199;48.832;9.182;2023-04-24T11:31:49;3.08;;;1.10;;
18146;SDS011;9199;48.832;9.182;2023-04-24T11:34:17;2.72;;;1.35;;
18146;SDS011;9199;48.832;9.182;2023-04-24T11:36:44;3.20;;;1.30;;
18146;SDS011;9199;48.832;9.182;2023-04-24T11:39:12;3.17;;;1.33;;
18146;SDS011;9199;48.832;9.182;2023-04-24T11:41:40;3.80;;;1.40;;
18146;SDS011;9199;48.832;9.182;2023-04-24T11:44:08;5.18;;;1.30;;
18146;SDS011;9199;48.832;9.182;2023-04-24T11:46:36;2.42;;;1.10;;
18146;SDS011;9199;48.832;9.182;2023-04-24T11:49:05;2.77;;;1.20;;
18146;SDS011;9199;48.832;9.182;2023-04-24T11:51:33;3.05;;;1.30;;
18146;SDS011;9199;48.832;9.182;2023-04-24T11:54:00;2.50;;;1.00;;
18146;SDS011;9199;48.832;9.182;2023-04-24T11:56:27;2.65;;;1.27;;
18146;SDS011;9199;48.832;9.182;2023-04-24T11:58:54;2.83;;;1.10;;
18146;SDS011;9199;48.832;9.182;2023-04-24T12:01:21;3.10;;;1.27;;
18146;SDS011;9199;48.832;9.182;2023-04-24T12:03:48;2.30;;;1.20;;
18146;SDS011;9199;48.832;9.182;2023-04-24T12:06:16;3.63;;;1.30;;
18146;SDS011;9199;48.832;9.182;2023-04-24T12:08:46;3.38;;;1.20;;
18146;SDS011;9199;48.832;9.182;2023-04-24T12:11:14;2.65;;;1.17;;
18146;SDS011;9199;48.832;9.182;2023-04-24T12:13:42;2.60;;;1.10;;
18146;SDS011;9199;48.832;9.182;2023-04-24T12:16:09;5.15;;;1.02;;
18146;SDS011;9199;48.832;9.182;2023-04-24T12:18:41;3.97;;;1.40;;
18146;SDS011;9199;48.832;9.182;2023-04-24T12:21:14;3.90;;;1.10;;
18146;SDS011;9199;48.832;9.182;2023-04-24T12:23:46;2.80;;;1.20;;
18146;SDS011;9199;48.832;9.182;2023-04-24T12:26:15;4.53;;;1.30;;
18146;SDS011;9199;48.832;9.182;2023-04-24T12:28:46;2.45;;;0.93;;
18146;SDS011;9199;48.832;9.182;2023-04-24T12:31:13;2.65;;;1.25;;
18146;SDS011;9199;48.832;9.182;2023-04-24T12:33:41;2.75;;;1.10;;
18146;SDS011;9199;48.832;9.182;2023-04-24T12:36:09;2.72;;;1.00;;
18146;SDS011;9199;48.832;9.182;2023-04-24T12:38:37;1.97;;;0.90;;
18146;SDS011;9199;48.832;9.182;2023-04-24T12:41:07;2.97;;;1.00;;
18146;SDS011;9199;48.832;9.182;2023-04-24T12:43:35;3.33;;;1.20;;
18146;SDS011;9199;48.832;9.182;2023-04-24T12:46:02;3.63;;;1.27;;
18146;SDS011;9199;48.832;9.182;2023-04-24T12:48:29;2.35;;;1.02;;
18146;SDS011;9199;48.832;9.182;2023-04-24T12:50:57;2.47;;;1.13;;
18146;SDS011;9199;48.832;9.182;2023-04-24T12:53:26;2.80;;;1.10;;
18146;SDS011;9199;48.832;9.182;2023-04-24T12:55:54;2.15;;;1.08;;
18146;SDS011;9199;48.832;9.182;2023-04-24T12:58:22;2.97;;;1.30;;
18146;SDS011;9199;48.832;9.182;2023-04-24T13:00:49;2.63;;;1.27;;
18146;SDS011;9199;48.832;9.182;2023-04-24T13:03:16;5.13;;;1.17;;
18146;SDS011;9199;48.832;9.182;2023-04-24T13:05:43;2.78;;;1.13;;
18146;SDS011;9199;48.832;9.182;2023-04-24T13:08:09;3.17;;;1.10;;
18146;SDS011;9199;48.832;9.182;2023-04-24T13:10:38;2.33;;;1.13;;
18146;SDS011;9199;48.832;9.182;2023-04-24T13:13:05;5.53;;;0.98;;
18146;SDS011;9199;48.832;9.182;2023-04-24T13:15:33;2.13;;;0.87;;
18146;SDS011;9199;48.832;9.182;2023-04-24T13:18:00;2.83;;;1.02;;
18146;SDS011;9199;48.832;9.182;2023-04-24T13:20:27;3.38;;;1.20;;
18146;SDS011;9199;48.832;9.182;2023-04-24T13:22:53;3.05;;;1.50;;
18146;SDS011;9199;48.832;9.182;2023-04-24T13:25:20;2.80;;;1.10;;
18146;SDS011;9199;48.832;9.182;2023-04-24T13:27:48;2.80;;;1.47;;
18146;SDS011;9199;48.832;9.182;2023-04-24T13:30:15;3.38;;;1.50;;
18146;SDS011;9199;48.832;9.182;2023-04-24T13:32:43;2.72;;;1.40;;
18146;SDS011;9199;48.832;9.182;2023-04-24T13:35:10;3.85;;;1.85;;
18146;SDS011;9199;48.832;9.182;2023-04-24T13:37:37;3.83;;;1.40;;
18146;SDS011;9199;48.832;9.182;2023-04-24T13:40:04;2.80;;;1.27;;
18146;SDS011;9199;48.832;9.182;2023-04-24T13:42:32;3.50;;;1.70;;
18146;SDS011;9199;48.832;9.182;2023-04-24T13:44:58;3.38;;;1.60;;
18146;SDS011;9199;48.832;9.182;2023-04-24T13:47:25;3.92;;;1.58;;
18146;SDS011;9199;48.832;9.182;2023-04-24T13:49:53;5.95;;;1.50;;
18146;SDS011;9199;48.832;9.182;2023-04-24T13:52:20;3.17;;;1.30;;
18146;SDS011;9199;48.832;9.182;2023-04-24T13:54:46;2.38;;;1.00;;
18146;SDS011;9199;48.832;9.182;2023-04-24T13:57:13;2.10;;;1.05;;
18146;SDS011;9199;48.832;9.182;2023-04-24T13:59:41;4.05;;;1.08;;
18146;SDS011;9199;48.832;9.182;2023-04-24T14:02:07;2.17;;;1.05;;
18146;SDS011;9199;48.832;9.182;2023-04-24T14:04:34;7.83;;;1.23;;
18146;SDS011;9199;48.832;9.182;2023-04-24T14:07:02;2.88;;;1.23;;
18146;SDS011;9199;48.832;9.182;2023-04-24T14:09:29;3.40;;;1.45;;
18146;SDS011;9199;48.832;9.182;2023-04-24T14:11:55;2.83;;;1.42;;
18146;SDS011;9199;48.832;9.182;2023-04-24T14:14:22;3.35;;;1.40;;
18146;SDS011;9199;48.832;9.182;2023-04-24T14:16:49;3.20;;;1.30;;
18146;SDS011;9199;48.832;9.182;2023-04-24T14:19:16;3.25;;;1.52;;
18146;SDS011;9199;48.832;9.182;2023-04-24T14:21:42;2.63;;;1.38;;
18146;SDS011;9199;48.832;9.182;2023-04-24T14:24:10;3.28;;;1.70;;
18146;SDS011;9199;48.832;9.182;2023-04-24T14:26:37;3.22;;;1.50;;
18146;SDS011;9199;48.832;9.182;2023-04-24T14:29:04;2.93;;;1.40;;
18146;SDS011;9199;48.832;9.182;2023-04-24T14:31:30;2.47;;;1.10;;
18146;SDS011;9199;48.832;9.182;2023-04-24T14:33:57;3.67;;;1.30;;
18146;SDS011;9199;48.832;9.182;2023-04-24T14:36:24;2.85;;;1.13;;
18146;SDS011;9199;48.832;9.182;2023-04-24T14:38:51;2.78;;;1.30;;
18146;SDS011;9199;48.832;9.182;2023-04-24T14:41:19;3.17;;;1.50;;
18146;SDS011;9199;48.832;9.182;2023-04-24T14:43:46;2.85;;;1.20;;
18146;SDS011;9199;48.832;9.182;2023-04-24T14:46:12;4.60;;;1.45;;
18146;SDS011;9199;48.832;9.182;2023-04-24T14:48:39;3.47;;;1.38;;
18146;SDS011;9199;48.832;9.182;2023-04-24T14:51:06;2.90;;;1.20;;
18146;SDS011;9199;48.832;9.182;2023-04-24T14:53:33;2.97;;;1.30;;
18146;SDS011;9199;48.832;9.182;2023-04-24T14:56:00;3.83;;;1.40;;
18146;SDS011;9199;48.832;9.182;2023-04-24T14:58:28;3.92;;;1.10;;
18146;SDS011;9199;48.832;9.182;2023-04-24T15:00:55;3.47;;;1.15;;
18146;SDS011;9199;48.832;9.182;2023-04-24T15:03:21;3.17;;;1.48;;
18146;SDS011;9199;48.832;9.182;2023-04-24T15:05:48;3.63;;;1.30;;
18146;SDS011;9199;48.832;9.182;2023-04-24T15:08:15;2.83;;;1.23;;